createdAt,value
2022-08-23T00:01:22.344Z,2.10
2022-08-23T00:03:55.177Z,1.90
2022-08-23T00:06:24.180Z,1.80
2022-08-23T00:08:53.649Z,1.97
2022-08-23T00:11:30.966Z,1.80
2022-08-23T00:14:00.628Z,1.97
2022-08-23T00:16:29.271Z,1.80
2022-08-23T00:18:59.415Z,1.80
2022-08-23T00:21:29.238Z,1.83
2022-08-23T00:23:57.888Z,1.90
2022-08-23T00:26:26.570Z,1.97
2022-08-23T00:28:54.875Z,2.00
2022-08-23T00:31:22.836Z,2.00
2022-08-23T00:33:50.766Z,2.10
2022-08-23T00:36:20.137Z,2.10
2022-08-23T00:38:48.061Z,2.00
2022-08-23T00:41:16.060Z,2.10
2022-08-23T00:44:01.406Z,1.90
2022-08-23T00:47:00.595Z,1.70
2022-08-23T00:49:32.346Z,2.13
2022-08-23T00:52:07.726Z,2.00
2022-08-23T00:54:38.949Z,2.00
2022-08-23T00:57:12.857Z,2.50
2022-08-23T00:59:41.483Z,1.90
2022-08-23T01:02:10.832Z,2.13
2022-08-23T01:04:41.224Z,1.80
2022-08-23T01:07:16.956Z,1.50
2022-08-23T01:09:47.725Z,1.90
2022-08-23T01:12:32.254Z,2.10
2022-08-23T01:15:06.715Z,2.20
2022-08-23T01:17:41.714Z,2.30
2022-08-23T01:20:16.992Z,1.93
2022-08-23T01:22:53.815Z,2.50
2022-08-23T01:25:25.005Z,2.20
2022-08-23T01:27:53.294Z,2.73
2022-08-23T01:30:23.858Z,2.40
2022-08-23T01:32:56.193Z,2.20
2022-08-23T01:35:32.136Z,2.80
2022-08-23T01:38:00.171Z,2.10
2022-08-23T01:40:30.162Z,1.90
2022-08-23T01:42:58.293Z,1.80
2022-08-23T01:45:26.343Z,2.00
2022-08-23T01:47:54.444Z,1.97
2022-08-23T01:50:22.670Z,1.60
2022-08-23T01:52:50.797Z,1.93
2022-08-23T01:55:19.699Z,1.40
2022-08-23T01:57:51.828Z,1.70
2022-08-23T02:00:21.363Z,1.60
2022-08-23T02:02:49.595Z,1.47
2022-08-23T02:05:19.221Z,1.80
2022-08-23T02:07:49.838Z,1.47
2022-08-23T02:10:18.602Z,1.60
2022-08-23T02:12:48.256Z,1.60
2022-08-23T02:15:17.423Z,1.40
2022-08-23T02:17:46.614Z,1.30
2022-08-23T02:20:14.953Z,1.50
2022-08-23T02:22:43.286Z,1.30
2022-08-23T02:25:11.465Z,1.57
2022-08-23T02:27:43.882Z,1.70
2022-08-23T02:30:17.019Z,1.60
2022-08-23T02:32:45.032Z,1.60
2022-08-23T02:35:15.742Z,1.70
2022-08-23T02:37:44.899Z,1.30
2022-08-23T02:40:13.296Z,1.50
2022-08-23T02:42:42.203Z,1.40
2022-08-23T02:45:11.377Z,1.40
2022-08-23T02:47:40.837Z,1.40
2022-08-23T02:50:09.987Z,1.30
2022-08-23T02:52:37.979Z,1.67
2022-08-23T02:55:07.647Z,1.70
2022-08-23T02:57:35.629Z,1.70
2022-08-23T03:00:05.254Z,1.53
2022-08-23T03:02:33.312Z,1.73
2022-08-23T03:05:02.738Z,1.70
2022-08-23T03:07:31.182Z,1.77
2022-08-23T03:10:02.411Z,2.00
2022-08-23T03:12:31.010Z,2.20
2022-08-23T03:14:59.116Z,1.90
2022-08-23T03:17:27.624Z,2.10
2022-08-23T03:19:55.598Z,2.00
2022-08-23T03:22:24.989Z,2.37
2022-08-23T03:24:53.088Z,1.80
2022-08-23T03:27:21.065Z,2.20
2022-08-23T03:29:49.029Z,2.07
2022-08-23T03:32:17.333Z,2.07
2022-08-23T03:34:45.341Z,2.50
2022-08-23T03:37:13.395Z,1.80
2022-08-23T03:39:42.969Z,1.97
2022-08-23T03:42:11.512Z,1.83
2022-08-23T03:44:39.764Z,2.00
2022-08-23T03:47:07.833Z,1.87
2022-08-23T03:49:35.802Z,2.03
2022-08-23T03:52:04.315Z,2.50
2022-08-23T03:54:32.598Z,1.80
2022-08-23T03:57:04.577Z,2.30
2022-08-23T03:59:34.993Z,2.20
2022-08-23T04:02:03.089Z,1.93
2022-08-23T04:04:31.170Z,2.30
2022-08-23T04:06:59.137Z,1.80
2022-08-23T04:09:30.061Z,1.83
2022-08-23T04:11:58.102Z,2.00
2022-08-23T04:14:27.508Z,2.57
2022-08-23T04:16:55.817Z,2.30
2022-08-23T04:19:24.369Z,2.60
2022-08-23T04:21:53.964Z,2.77
2022-08-23T04:24:21.928Z,2.80
2022-08-23T04:26:51.162Z,2.63
2022-08-23T04:29:34.269Z,2.40
2022-08-23T04:32:05.500Z,2.80
2022-08-23T04:34:36.363Z,2.33
2022-08-23T04:37:04.369Z,2.20
2022-08-23T04:39:57.888Z,2.50
2022-08-23T04:42:25.957Z,2.50
2022-08-23T04:44:53.909Z,2.83
2022-08-23T04:47:23.892Z,2.80
2022-08-23T04:49:51.859Z,2.80
2022-08-23T04:52:19.867Z,2.50
2022-08-23T04:54:47.898Z,2.70
2022-08-23T04:57:16.897Z,2.63
2022-08-23T04:59:44.969Z,2.53
2022-08-23T05:02:15.797Z,2.70
2022-08-23T05:04:45.073Z,2.70
2022-08-23T05:07:13.178Z,2.60
2022-08-23T05:09:41.077Z,2.33
2022-08-23T05:12:09.442Z,2.50
2022-08-23T05:14:37.406Z,2.40
2022-08-23T05:17:05.875Z,2.30
2022-08-23T05:19:33.859Z,2.37
2022-08-23T05:22:03.916Z,2.60
2022-08-23T05:24:32.144Z,2.10
2022-08-23T05:27:00.157Z,1.90
2022-08-23T05:29:28.273Z,2.10
2022-08-23T05:31:57.224Z,2.10
2022-08-23T05:34:25.586Z,2.10
2022-08-23T05:36:55.461Z,2.20
2022-08-23T05:39:35.972Z,2.00
2022-08-23T05:42:05.612Z,2.30
2022-08-23T05:44:36.370Z,2.43
2022-08-23T05:47:11.121Z,1.93
2022-08-23T05:49:40.409Z,1.90
2022-08-23T05:52:11.831Z,1.90
2022-08-23T05:54:41.282Z,1.93
2022-08-23T05:57:10.571Z,2.07
2022-08-23T05:59:38.627Z,2.00
2022-08-23T06:02:09.503Z,2.00
2022-08-23T06:04:37.694Z,1.80
2022-08-23T06:07:06.681Z,1.90
2022-08-23T06:09:34.628Z,2.10
2022-08-23T06:12:04.713Z,2.10
2022-08-23T06:14:32.762Z,2.20
2022-08-23T06:17:00.891Z,2.07
2022-08-23T06:19:28.828Z,2.20
2022-08-23T06:21:56.836Z,2.00
2022-08-23T06:24:24.819Z,2.10
2022-08-23T06:26:52.764Z,2.10
2022-08-23T06:29:22.873Z,1.90
2022-08-23T06:31:52.748Z,2.10
2022-08-23T06:34:23.119Z,2.40
2022-08-23T06:36:53.608Z,2.20
2022-08-23T06:39:23.317Z,2.10
2022-08-23T06:41:51.423Z,2.40
2022-08-23T06:44:21.507Z,2.00
2022-08-23T06:46:49.566Z,2.30
2022-08-23T06:49:17.884Z,2.03
2022-08-23T06:51:49.576Z,2.07
2022-08-23T06:54:22.019Z,2.17
2022-08-23T06:56:50.917Z,1.87
2022-08-23T06:59:21.493Z,2.03
2022-08-23T07:01:53.667Z,2.10
2022-08-23T07:04:24.555Z,2.30
2022-08-23T07:06:52.830Z,2.10
2022-08-23T07:09:20.913Z,2.60
2022-08-23T07:11:49.328Z,2.40
2022-08-23T07:14:20.113Z,2.50
2022-08-23T07:16:51.731Z,2.77
2022-08-23T07:19:21.453Z,2.40
2022-08-23T07:21:50.999Z,2.67
2022-08-23T07:24:19.790Z,2.90
2022-08-23T07:26:49.680Z,3.07
2022-08-23T07:29:18.592Z,2.60
2022-08-23T07:31:50.683Z,3.00
2022-08-23T07:34:19.458Z,3.23
2022-08-23T07:36:49.051Z,2.97
2022-08-23T07:39:18.906Z,3.00
2022-08-23T07:41:47.396Z,3.20
2022-08-23T07:44:18.254Z,3.00
2022-08-23T07:46:47.818Z,2.93
2022-08-23T07:49:17.842Z,3.50
2022-08-23T07:51:48.971Z,3.00
2022-08-23T07:54:18.216Z,2.90
2022-08-23T07:56:46.803Z,3.33
2022-08-23T07:59:15.000Z,2.90
2022-08-23T08:01:45.057Z,2.60
2022-08-23T08:04:13.629Z,3.00
2022-08-23T08:06:46.377Z,2.63
2022-08-23T08:09:16.072Z,3.10
2022-08-23T08:11:47.416Z,2.50
2022-08-23T08:14:18.483Z,2.77
2022-08-23T08:16:48.735Z,2.80
2022-08-23T08:19:19.863Z,2.70
2022-08-23T08:21:49.458Z,2.70
2022-08-23T08:24:18.508Z,2.53
2022-08-23T08:26:47.408Z,2.60
2022-08-23T08:29:15.967Z,2.60
2022-08-23T08:31:46.713Z,2.50
2022-08-23T08:34:15.266Z,2.07
2022-08-23T08:36:45.473Z,2.20
2022-08-23T08:39:18.805Z,1.87
2022-08-23T08:42:00.341Z,1.80
2022-08-23T08:44:46.180Z,1.93
2022-08-23T08:47:20.735Z,1.90
2022-08-23T08:49:58.206Z,1.77
2022-08-23T08:52:31.080Z,1.50
2022-08-23T08:55:06.849Z,1.70
2022-08-23T08:57:41.590Z,1.60
2022-08-23T09:00:13.924Z,1.53
2022-08-23T09:02:45.114Z,1.67
2022-08-23T09:05:15.784Z,1.50
2022-08-23T09:07:51.920Z,1.70
2022-08-23T09:10:54.421Z,1.60
2022-08-23T09:13:59.581Z,1.30
2022-08-23T09:16:39.384Z,1.40
2022-08-23T09:19:07.730Z,1.60
2022-08-23T09:21:44.721Z,1.33
2022-08-23T09:24:13.461Z,1.50
2022-08-23T09:26:43.692Z,1.50
2022-08-23T09:29:20.120Z,1.80
2022-08-23T09:31:52.527Z,2.13
2022-08-23T09:34:23.378Z,1.90
2022-08-23T09:36:52.413Z,1.90
2022-08-23T09:39:31.184Z,1.93
2022-08-23T09:42:01.203Z,2.23
2022-08-23T09:44:36.922Z,2.10
2022-08-23T09:47:11.866Z,2.30
2022-08-23T09:49:41.359Z,1.97
2022-08-23T09:52:22.755Z,1.90
2022-08-23T09:55:03.057Z,1.70
2022-08-23T09:57:34.366Z,1.57
2022-08-23T10:00:18.655Z,1.50
2022-08-23T10:02:46.577Z,1.70
2022-08-23T10:05:19.915Z,1.57
2022-08-23T10:07:57.187Z,1.60
2022-08-23T10:10:32.641Z,1.50
2022-08-23T10:13:03.234Z,2.00
2022-08-23T10:15:49.364Z,2.10
2022-08-23T10:18:27.628Z,1.70
2022-08-23T10:21:01.815Z,1.70
2022-08-23T10:23:43.149Z,1.77
2022-08-23T10:26:20.824Z,1.80
2022-08-23T10:29:13.815Z,1.80
2022-08-23T10:31:47.326Z,1.87
2022-08-23T10:34:30.050Z,1.60
2022-08-23T10:37:15.756Z,1.70
2022-08-23T10:39:50.046Z,1.80
2022-08-23T10:42:31.788Z,1.67
2022-08-23T10:45:10.878Z,1.57
2022-08-23T10:47:46.675Z,1.37
2022-08-23T10:50:20.834Z,1.50
2022-08-23T10:52:55.501Z,1.90
2022-08-23T10:55:39.230Z,1.70
2022-08-23T10:58:13.259Z,2.03
2022-08-23T11:00:43.803Z,1.20
2022-08-23T11:03:26.898Z,1.43
2022-08-23T11:06:26.544Z,1.40
2022-08-23T11:09:04.907Z,1.50
2022-08-23T11:11:40.626Z,1.60
2022-08-23T11:14:10.836Z,1.67
2022-08-23T11:16:43.138Z,1.60
2022-08-23T11:19:35.314Z,1.60
2022-08-23T11:22:15.673Z,1.90
2022-08-23T11:24:55.753Z,1.70
2022-08-23T11:27:39.352Z,1.90
2022-08-23T11:30:46.508Z,1.67
2022-08-23T11:33:24.013Z,1.57
2022-08-23T11:35:54.906Z,1.80
2022-08-23T11:39:04.989Z,1.60
2022-08-23T11:41:34.548Z,1.20
2022-08-23T11:44:24.337Z,1.20
2022-08-23T11:47:04.547Z,1.57
2022-08-23T11:50:12.038Z,1.70
2022-08-23T11:52:57.026Z,1.60
2022-08-23T11:55:46.444Z,1.40
2022-08-23T11:58:24.403Z,1.27
2022-08-23T12:01:06.442Z,1.40
2022-08-23T12:03:37.793Z,1.10
2022-08-23T12:06:12.808Z,1.10
2022-08-23T12:09:02.464Z,1.00
2022-08-23T12:12:02.256Z,1.13
2022-08-23T12:14:37.444Z,1.30
2022-08-23T12:17:27.604Z,1.10
2022-08-23T12:20:01.546Z,1.20
2022-08-23T12:22:35.443Z,1.33
2022-08-23T12:25:06.110Z,1.40
2022-08-23T12:27:37.647Z,1.80
2022-08-23T12:30:10.865Z,1.77
2022-08-23T12:32:45.602Z,2.00
2022-08-23T12:35:32.983Z,2.00
2022-08-23T12:38:08.787Z,2.00
2022-08-23T12:40:42.101Z,2.00
2022-08-23T12:43:21.238Z,1.90
2022-08-23T12:45:54.072Z,1.80
2022-08-23T12:48:25.488Z,1.90
2022-08-23T12:50:57.134Z,1.80
2022-08-23T12:53:33.215Z,1.70
2022-08-23T12:56:03.679Z,2.00
2022-08-23T12:58:35.328Z,1.80
2022-08-23T13:01:08.317Z,1.90
2022-08-23T13:03:40.580Z,1.80
2022-08-23T13:06:12.216Z,1.80
2022-08-23T13:08:45.096Z,1.83
2022-08-23T13:11:16.042Z,1.70
2022-08-23T13:13:45.432Z,1.70
2022-08-23T13:16:28.927Z,1.50
2022-08-23T13:19:11.132Z,1.80
2022-08-23T13:21:40.220Z,1.40
2022-08-23T13:24:37.778Z,1.63
2022-08-23T13:27:22.071Z,1.60
2022-08-23T13:29:54.720Z,1.80
2022-08-23T13:32:38.308Z,1.57
2022-08-23T13:35:38.802Z,1.73
2022-08-23T13:38:22.011Z,2.00
2022-08-23T13:41:02.078Z,2.00
2022-08-23T13:43:35.007Z,2.00
2022-08-23T13:46:13.906Z,1.90
2022-08-23T13:48:48.860Z,1.87
2022-08-23T13:51:31.279Z,1.60
2022-08-23T13:54:02.200Z,1.70
2022-08-23T13:56:35.894Z,1.60
2022-08-23T13:59:19.649Z,1.80
2022-08-23T14:01:47.717Z,1.67
2022-08-23T14:04:16.020Z,1.80
2022-08-23T14:06:44.080Z,1.77
2022-08-23T14:09:17.224Z,1.60
2022-08-23T14:11:48.903Z,1.80
2022-08-23T14:14:17.089Z,1.70
2022-08-23T14:16:45.202Z,1.33
2022-08-23T14:19:16.449Z,1.33
2022-08-23T14:21:47.200Z,1.60
2022-08-23T14:24:15.278Z,1.50
2022-08-23T14:26:51.883Z,1.63
2022-08-23T14:29:22.835Z,1.70
2022-08-23T14:31:52.049Z,1.53
2022-08-23T14:34:20.735Z,1.50
2022-08-23T14:39:37.203Z,1.67
2022-08-23T14:42:06.379Z,1.70
2022-08-23T14:44:36.514Z,1.40
2022-08-23T14:47:05.786Z,1.77
2022-08-23T14:49:34.120Z,1.67
2022-08-23T14:52:02.624Z,1.60
2022-08-23T14:54:30.826Z,1.40
2022-08-23T14:56:59.005Z,1.40
2022-08-23T14:59:27.105Z,1.40
2022-08-23T15:01:57.796Z,1.50
2022-08-23T15:04:30.382Z,1.40
2022-08-23T15:07:19.578Z,1.40
2022-08-23T15:09:48.630Z,1.50
2022-08-23T15:15:06.303Z,1.30
2022-08-23T15:17:39.170Z,1.40
2022-08-23T15:20:08.109Z,1.30
2022-08-23T15:22:39.952Z,1.30
2022-08-23T15:25:13.587Z,1.50
2022-08-23T15:27:42.337Z,1.30
2022-08-23T15:30:11.934Z,1.20
2022-08-23T15:32:41.544Z,1.40
2022-08-23T15:35:20.626Z,1.30
2022-08-23T15:37:50.161Z,1.20
2022-08-23T15:40:18.453Z,1.40
2022-08-23T15:42:46.556Z,1.20
2022-08-23T15:45:14.581Z,1.30
2022-08-23T15:47:49.350Z,1.30
2022-08-23T15:50:20.073Z,1.20
2022-08-23T15:52:48.104Z,1.20
2022-08-23T15:55:16.742Z,1.20
2022-08-23T15:57:50.071Z,1.10
2022-08-23T16:00:20.708Z,1.20
2022-08-23T16:03:20.217Z,1.10
2022-08-23T16:05:41.127Z,1.00
2022-08-23T16:08:14.293Z,1.10
2022-08-23T16:10:42.405Z,1.10
2022-08-23T16:13:10.473Z,1.10
2022-08-23T16:15:39.855Z,1.10
2022-08-23T16:18:09.720Z,1.10
2022-08-23T16:20:38.921Z,1.10
2022-08-23T16:23:07.223Z,1.00
2022-08-23T16:25:35.679Z,1.20
2022-08-23T16:28:04.936Z,1.10
2022-08-23T16:30:32.938Z,1.07
2022-08-23T16:33:01.280Z,1.10
2022-08-23T16:35:30.808Z,1.03
2022-08-23T16:37:58.846Z,1.00
2022-08-23T16:40:27.020Z,1.00
2022-08-23T16:42:56.394Z,1.00
2022-08-23T16:45:25.204Z,1.20
2022-08-23T16:47:54.716Z,1.00
2022-08-23T16:50:22.808Z,1.30
2022-08-23T16:52:52.354Z,1.10
2022-08-23T16:55:20.630Z,1.20
2022-08-23T16:57:48.729Z,1.10
2022-08-23T17:00:17.432Z,1.20
2022-08-23T17:02:46.172Z,1.10
2022-08-23T17:05:16.601Z,1.13
2022-08-23T17:07:44.713Z,1.20
2022-08-23T17:10:16.018Z,1.10
2022-08-23T17:12:47.076Z,1.20
2022-08-23T17:15:20.679Z,1.10
2022-08-23T17:17:49.045Z,1.20
2022-08-23T17:20:18.204Z,1.10
2022-08-23T17:22:47.114Z,1.00
2022-08-23T17:25:17.856Z,1.07
2022-08-23T17:27:47.684Z,1.20
2022-08-23T17:30:19.071Z,0.90
2022-08-23T17:32:48.879Z,0.90
2022-08-23T17:35:18.608Z,1.00
2022-08-23T17:37:47.239Z,0.73
2022-08-23T17:40:19.869Z,0.90
2022-08-23T17:42:50.000Z,0.87
2022-08-23T17:45:18.649Z,0.90
2022-08-23T17:47:46.820Z,0.90
2022-08-23T17:50:15.531Z,0.80
2022-08-23T17:52:45.123Z,0.97
2022-08-23T17:55:16.971Z,1.07
2022-08-23T17:57:49.275Z,1.00
2022-08-23T18:00:19.787Z,1.00
2022-08-23T18:02:47.889Z,1.00
2022-08-23T18:05:16.946Z,1.10
2022-08-23T18:07:45.185Z,1.00
2022-08-23T18:10:14.323Z,0.90
2022-08-23T18:12:43.368Z,1.00
2022-08-23T18:15:13.326Z,0.90
2022-08-23T18:17:41.962Z,1.10
2022-08-23T18:20:12.582Z,0.93
2022-08-23T18:22:41.404Z,1.00
2022-08-23T18:25:13.436Z,1.00
2022-08-23T18:27:59.112Z,0.90
2022-08-23T18:30:28.991Z,0.87
2022-08-23T18:32:57.695Z,0.70
2022-08-23T18:35:29.335Z,1.00
2022-08-23T18:37:57.904Z,0.90
2022-08-23T18:40:27.338Z,1.00
2022-08-23T18:42:56.214Z,0.90
2022-08-23T18:45:24.689Z,0.80
2022-08-23T18:47:54.403Z,0.90
2022-08-23T18:50:22.673Z,0.80
2022-08-23T18:52:50.663Z,1.00
2022-08-23T18:55:20.277Z,0.80
2022-08-23T18:57:48.482Z,0.70
2022-08-23T19:00:16.882Z,0.80
2022-08-23T19:02:45.181Z,0.70
2022-08-23T19:05:14.770Z,0.83
2022-08-23T19:07:42.952Z,0.80
2022-08-23T19:10:11.740Z,0.70
2022-08-23T19:12:39.745Z,0.90
2022-08-23T19:15:20.245Z,0.80
2022-08-23T19:17:48.780Z,0.70
2022-08-23T19:20:19.291Z,0.80
2022-08-23T19:22:47.478Z,0.70
2022-08-23T19:25:15.555Z,0.63
2022-08-23T19:27:43.625Z,0.60
2022-08-23T19:30:13.012Z,0.90
2022-08-23T19:32:46.314Z,0.70
2022-08-23T19:35:14.603Z,0.80
2022-08-23T19:37:44.034Z,0.80
2022-08-23T19:40:14.440Z,0.80
2022-08-23T19:42:42.535Z,0.80
2022-08-23T19:45:11.654Z,0.77
2022-08-23T19:47:40.763Z,0.70
2022-08-23T19:50:09.943Z,0.70
2022-08-23T19:52:38.764Z,0.70
2022-08-23T19:55:09.294Z,0.60
2022-08-23T19:57:38.359Z,0.80
2022-08-23T20:00:17.054Z,0.80
2022-08-23T20:02:47.432Z,0.80
2022-08-23T20:05:15.820Z,0.70
2022-08-23T20:07:44.333Z,0.80
2022-08-23T20:10:15.840Z,0.80
2022-08-23T20:12:43.918Z,0.80
2022-08-23T20:15:13.552Z,0.83
2022-08-23T20:17:42.041Z,0.70
2022-08-23T20:20:13.789Z,0.70
2022-08-23T20:23:00.116Z,0.90
2022-08-23T20:25:30.793Z,0.80
2022-08-23T20:27:59.419Z,0.83
2022-08-23T20:30:27.502Z,0.70
2022-08-23T20:32:55.612Z,1.00
2022-08-23T20:35:23.768Z,0.87
2022-08-23T20:37:51.917Z,0.83
2022-08-23T20:40:20.536Z,1.00
2022-08-23T20:42:51.844Z,1.10
2022-08-23T20:45:20.167Z,0.87
2022-08-23T20:47:48.405Z,1.10
2022-08-23T20:50:16.442Z,1.27
2022-08-23T20:52:44.405Z,1.03
2022-08-23T20:55:14.970Z,1.00
2022-08-23T20:57:43.038Z,1.20
2022-08-23T21:00:13.955Z,1.23
2022-08-23T21:02:42.040Z,1.20
2022-08-23T21:05:10.681Z,1.40
2022-08-23T21:07:38.652Z,1.33
2022-08-23T21:10:07.698Z,1.40
2022-08-23T21:12:36.072Z,1.67
2022-08-23T21:15:06.883Z,1.00
2022-08-23T21:17:39.705Z,1.40
2022-08-23T21:20:08.481Z,1.30
2022-08-23T21:22:36.555Z,1.50
2022-08-23T21:25:05.093Z,1.47
2022-08-23T21:27:33.232Z,1.40
2022-08-23T21:30:01.356Z,1.30
2022-08-23T21:32:29.367Z,1.20
2022-08-23T21:34:59.219Z,1.33
2022-08-23T21:37:28.319Z,1.70
2022-08-23T21:39:56.675Z,1.90
2022-08-23T21:42:25.083Z,1.90
2022-08-23T21:44:53.672Z,1.47
2022-08-23T21:47:21.690Z,1.80
2022-08-23T21:49:49.727Z,2.10
2022-08-23T21:52:19.105Z,1.80
2022-08-23T21:54:47.063Z,1.90
2022-08-23T21:57:15.283Z,1.70
2022-08-23T21:59:43.644Z,2.33
2022-08-23T22:02:11.754Z,1.30
2022-08-23T22:04:40.212Z,1.50
2022-08-23T22:07:08.671Z,1.40
2022-08-23T22:09:38.223Z,1.90
2022-08-23T22:12:07.621Z,1.60
2022-08-23T22:14:35.831Z,1.90
2022-08-23T22:17:04.304Z,1.80
2022-08-23T22:19:32.425Z,1.50
2022-08-23T22:22:01.093Z,1.77
2022-08-23T22:24:29.135Z,1.40
2022-08-23T22:26:58.696Z,1.30
2022-08-23T22:29:26.705Z,1.70
2022-08-23T22:31:56.402Z,2.07
2022-08-23T22:34:27.603Z,1.50
2022-08-23T22:36:55.861Z,2.00
2022-08-23T22:39:24.749Z,1.83
2022-08-23T22:41:52.798Z,3.70
2022-08-23T22:44:22.360Z,1.80
2022-08-23T22:46:50.382Z,2.20
2022-08-23T22:49:18.452Z,2.00
2022-08-23T22:51:46.590Z,1.80
2022-08-23T22:54:17.833Z,3.20
2022-08-23T22:56:48.386Z,2.80
2022-08-23T22:59:17.675Z,2.80
2022-08-23T23:01:50.500Z,2.50
2022-08-23T23:04:20.830Z,2.67
2022-08-23T23:06:49.300Z,2.03
2022-08-23T23:09:18.005Z,2.00
2022-08-23T23:11:46.831Z,2.70
2022-08-23T23:14:16.608Z,2.27
2022-08-23T23:16:45.319Z,2.63
2022-08-23T23:19:32.204Z,2.03
2022-08-23T23:22:01.438Z,2.20
2022-08-23T23:24:31.773Z,2.30
2022-08-23T23:27:00.355Z,2.07
2022-08-23T23:29:28.682Z,2.57
2022-08-23T23:31:57.828Z,2.40
2022-08-23T23:34:28.001Z,3.00
2022-08-23T23:36:57.215Z,3.13
2022-08-23T23:39:25.824Z,2.87
2022-08-23T23:41:54.794Z,2.50
2022-08-23T23:44:29.935Z,3.30
2022-08-23T23:47:01.083Z,2.87
2022-08-23T23:49:32.506Z,3.33
2022-08-23T23:52:02.471Z,3.03
2022-08-23T23:54:30.493Z,2.90
2022-08-23T23:56:58.650Z,2.50
2022-08-23T23:59:27.149Z,3.00
